sensor_id;sensor_type;location;lat;lon;timestamp;P1;durP1;ratioP1;P2;durP2;ratioP2
72590;SDS011;60625;51.212;5.952;2024-02-14T00:03:54;5.30;;;1.40;;
72590;SDS011;60625;51.212;5.952;2024-02-14T00:08:55;4.00;;;1.50;;
72590;SDS011;60625;51.212;5.952;2024-02-14T00:13:55;4.80;;;1.20;;
72590;SDS011;60625;51.212;5.952;2024-02-14T00:18:56;4.50;;;1.30;;
72590;SDS011;60625;51.212;5.952;2024-02-14T00:23:57;4.20;;;1.30;;
72590;SDS011;60625;51.212;5.952;2024-02-14T00:28:58;6.70;;;1.40;;
72590;SDS011;60625;51.212;5.952;2024-02-14T00:33:58;5.10;;;1.20;;
72590;SDS011;60625;51.212;5.952;2024-02-14T00:38:59;6.00;;;1.60;;
72590;SDS011;60625;51.212;5.952;2024-02-14T00:44:00;4.10;;;1.40;;
72590;SDS011;60625;51.212;5.952;2024-02-14T00:49:00;4.50;;;1.20;;
72590;SDS011;60625;51.212;5.952;2024-02-14T00:54:01;4.10;;;1.30;;
72590;SDS011;60625;51.212;5.952;2024-02-14T00:59:01;4.20;;;1.40;;
72590;SDS011;60625;51.212;5.952;2024-02-14T01:04:01;4.50;;;1.10;;
72590;SDS011;60625;51.212;5.952;2024-02-14T01:09:03;7.30;;;1.40;;
72590;SDS011;60625;51.212;5.952;2024-02-14T01:14:04;4.80;;;1.20;;
72590;SDS011;60625;51.212;5.952;2024-02-14T01:19:04;5.50;;;1.50;;
72590;SDS011;60625;51.212;5.952;2024-02-14T01:24:05;3.30;;;1.20;;
72590;SDS011;60625;51.212;5.952;2024-02-14T01:29:06;6.40;;;1.20;;
72590;SDS011;60625;51.212;5.952;2024-02-14T01:34:06;5.50;;;1.70;;
72590;SDS011;60625;51.212;5.952;2024-02-14T01:39:07;5.20;;;1.30;;
72590;SDS011;60625;51.212;5.952;2024-02-14T01:44:11;5.40;;;1.20;;
72590;SDS011;60625;51.212;5.952;2024-02-14T01:49:12;5.10;;;1.30;;
72590;SDS011;60625;51.212;5.952;2024-02-14T01:54:14;5.10;;;1.50;;
72590;SDS011;60625;51.212;5.952;2024-02-14T01:59:15;4.50;;;1.40;;
72590;SDS011;60625;51.212;5.952;2024-02-14T02:04:18;5.60;;;1.50;;
72590;SDS011;60625;51.212;5.952;2024-02-14T02:09:18;5.60;;;1.40;;
72590;SDS011;60625;51.212;5.952;2024-02-14T02:14:19;4.40;;;1.40;;
72590;SDS011;60625;51.212;5.952;2024-02-14T02:19:22;4.70;;;1.00;;
72590;SDS011;60625;51.212;5.952;2024-02-14T02:24:25;3.80;;;1.40;;
72590;SDS011;60625;51.212;5.952;2024-02-14T02:29:25;4.00;;;1.50;;
72590;SDS011;60625;51.212;5.952;2024-02-14T02:34:26;4.50;;;1.50;;
72590;SDS011;60625;51.212;5.952;2024-02-14T02:39:26;4.00;;;1.50;;
72590;SDS011;60625;51.212;5.952;2024-02-14T02:44:28;5.70;;;1.80;;
72590;SDS011;60625;51.212;5.952;2024-02-14T02:49:29;4.90;;;1.60;;
72590;SDS011;60625;51.212;5.952;2024-02-14T02:54:30;5.50;;;1.80;;
72590;SDS011;60625;51.212;5.952;2024-02-14T02:59:30;6.30;;;1.80;;
72590;SDS011;60625;51.212;5.952;2024-02-14T03:04:31;6.30;;;2.00;;
72590;SDS011;60625;51.212;5.952;2024-02-14T03:09:37;5.30;;;1.60;;
72590;SDS011;60625;51.212;5.952;2024-02-14T03:14:38;4.80;;;1.90;;
72590;SDS011;60625;51.212;5.952;2024-02-14T03:19:40;5.50;;;1.70;;
72590;SDS011;60625;51.212;5.952;2024-02-14T03:24:40;4.60;;;1.90;;
72590;SDS011;60625;51.212;5.952;2024-02-14T03:29:44;5.20;;;1.90;;
72590;SDS011;60625;51.212;5.952;2024-02-14T03:34:45;6.10;;;2.30;;
72590;SDS011;60625;51.212;5.952;2024-02-14T03:39:45;4.70;;;2.00;;
72590;SDS011;60625;51.212;5.952;2024-02-14T03:44:46;8.30;;;2.20;;
72590;SDS011;60625;51.212;5.952;2024-02-14T03:49:46;4.20;;;1.80;;
72590;SDS011;60625;51.212;5.952;2024-02-14T03:54:47;6.30;;;1.80;;
72590;SDS011;60625;51.212;5.952;2024-02-14T03:59:47;7.20;;;2.30;;
72590;SDS011;60625;51.212;5.952;2024-02-14T04:04:48;5.10;;;1.90;;
72590;SDS011;60625;51.212;5.952;2024-02-14T04:09:48;5.90;;;2.20;;
72590;SDS011;60625;51.212;5.952;2024-02-14T04:14:49;7.20;;;2.00;;
72590;SDS011;60625;51.212;5.952;2024-02-14T04:19:50;4.80;;;2.00;;
72590;SDS011;60625;51.212;5.952;2024-02-14T04:24:50;7.50;;;2.10;;
72590;SDS011;60625;51.212;5.952;2024-02-14T04:29:51;6.00;;;1.70;;
72590;SDS011;60625;51.212;5.952;2024-02-14T04:34:51;5.10;;;2.20;;
72590;SDS011;60625;51.212;5.952;2024-02-14T04:39:52;5.70;;;2.10;;
72590;SDS011;60625;51.212;5.952;2024-02-14T04:44:53;10.30;;;2.70;;
72590;SDS011;60625;51.212;5.952;2024-02-14T04:49:54;5.70;;;2.10;;
72590;SDS011;60625;51.212;5.952;2024-02-14T04:54:55;6.30;;;2.30;;
72590;SDS011;60625;51.212;5.952;2024-02-14T04:59:56;5.10;;;2.80;;
72590;SDS011;60625;51.212;5.952;2024-02-14T05:04:57;5.80;;;2.40;;
72590;SDS011;60625;51.212;5.952;2024-02-14T05:09:57;4.90;;;2.70;;
72590;SDS011;60625;51.212;5.952;2024-02-14T05:14:58;5.30;;;2.60;;
72590;SDS011;60625;51.212;5.952;2024-02-14T05:19:59;4.90;;;2.50;;
72590;SDS011;60625;51.212;5.952;2024-02-14T05:24:59;6.60;;;2.30;;
72590;SDS011;60625;51.212;5.952;2024-02-14T05:30:01;8.60;;;3.00;;
72590;SDS011;60625;51.212;5.952;2024-02-14T05:35:05;6.20;;;2.80;;
72590;SDS011;60625;51.212;5.952;2024-02-14T05:40:06;6.80;;;2.70;;
72590;SDS011;60625;51.212;5.952;2024-02-14T05:45:08;6.00;;;3.20;;
72590;SDS011;60625;51.212;5.952;2024-02-14T05:50:10;7.60;;;3.10;;
72590;SDS011;60625;51.212;5.952;2024-02-14T05:55:11;7.90;;;3.00;;
72590;SDS011;60625;51.212;5.952;2024-02-14T06:00:12;8.00;;;3.10;;
72590;SDS011;60625;51.212;5.952;2024-02-14T06:05:13;6.90;;;3.20;;
72590;SDS011;60625;51.212;5.952;2024-02-14T06:10:14;9.00;;;3.20;;
72590;SDS011;60625;51.212;5.952;2024-02-14T06:15:15;6.30;;;3.10;;
72590;SDS011;60625;51.212;5.952;2024-02-14T06:20:16;9.30;;;3.40;;
72590;SDS011;60625;51.212;5.952;2024-02-14T06:25:17;8.00;;;3.20;;
72590;SDS011;60625;51.212;5.952;2024-02-14T06:30:18;6.80;;;3.50;;
72590;SDS011;60625;51.212;5.952;2024-02-14T06:35:18;8.70;;;2.90;;
72590;SDS011;60625;51.212;5.952;2024-02-14T06:40:22;7.40;;;3.20;;
72590;SDS011;60625;51.212;5.952;2024-02-14T06:45:22;6.60;;;3.30;;
72590;SDS011;60625;51.212;5.952;2024-02-14T06:50:23;8.80;;;3.40;;
72590;SDS011;60625;51.212;5.952;2024-02-14T06:55:26;5.90;;;2.90;;
72590;SDS011;60625;51.212;5.952;2024-02-14T07:00:27;7.90;;;3.10;;
72590;SDS011;60625;51.212;5.952;2024-02-14T07:05:30;6.70;;;3.00;;
72590;SDS011;60625;51.212;5.952;2024-02-14T07:10:31;9.10;;;3.60;;
72590;SDS011;60625;51.212;5.952;2024-02-14T07:15:32;6.30;;;3.20;;
72590;SDS011;60625;51.212;5.952;2024-02-14T07:20:33;9.20;;;3.10;;
72590;SDS011;60625;51.212;5.952;2024-02-14T07:25:33;9.40;;;3.00;;
72590;SDS011;60625;51.212;5.952;2024-02-14T07:30:34;7.40;;;3.10;;
72590;SDS011;60625;51.212;5.952;2024-02-14T07:35:38;5.80;;;3.00;;
72590;SDS011;60625;51.212;5.952;2024-02-14T07:40:39;7.30;;;3.00;;
72590;SDS011;60625;51.212;5.952;2024-02-14T07:45:40;7.50;;;3.00;;
72590;SDS011;60625;51.212;5.952;2024-02-14T07:50:40;8.90;;;3.50;;
72590;SDS011;60625;51.212;5.952;2024-02-14T07:55:41;6.70;;;3.30;;
72590;SDS011;60625;51.212;5.952;2024-02-14T08:00:41;8.60;;;3.20;;
72590;SDS011;60625;51.212;5.952;2024-02-14T08:05:42;7.70;;;3.40;;
72590;SDS011;60625;51.212;5.952;2024-02-14T08:10:42;10.90;;;3.00;;
72590;SDS011;60625;51.212;5.952;2024-02-14T08:15:44;7.00;;;2.60;;
72590;SDS011;60625;51.212;5.952;2024-02-14T08:20:44;6.90;;;2.50;;
72590;SDS011;60625;51.212;5.952;2024-02-14T08:25:45;6.90;;;2.40;;
72590;SDS011;60625;51.212;5.952;2024-02-14T08:30:46;7.80;;;2.50;;
72590;SDS011;60625;51.212;5.952;2024-02-14T08:35:48;6.70;;;2.40;;
72590;SDS011;60625;51.212;5.952;2024-02-14T08:40:49;5.90;;;2.40;;
72590;SDS011;60625;51.212;5.952;2024-02-14T08:45:51;8.00;;;2.00;;
72590;SDS011;60625;51.212;5.952;2024-02-14T08:50:51;5.80;;;1.80;;
72590;SDS011;60625;51.212;5.952;2024-02-14T08:55:52;6.00;;;1.90;;
72590;SDS011;60625;51.212;5.952;2024-02-14T09:00:52;6.80;;;2.20;;
72590;SDS011;60625;51.212;5.952;2024-02-14T09:05:54;4.90;;;1.70;;
72590;SDS011;60625;51.212;5.952;2024-02-14T09:10:54;6.50;;;2.20;;
72590;SDS011;60625;51.212;5.952;2024-02-14T09:15:56;9.40;;;2.00;;
72590;SDS011;60625;51.212;5.952;2024-02-14T09:20:57;4.00;;;1.80;;
72590;SDS011;60625;51.212;5.952;2024-02-14T09:25:58;10.00;;;2.20;;
72590;SDS011;60625;51.212;5.952;2024-02-14T09:30:59;5.90;;;1.90;;
72590;SDS011;60625;51.212;5.952;2024-02-14T09:36:00;5.20;;;1.50;;
72590;SDS011;60625;51.212;5.952;2024-02-14T09:41:22;6.20;;;2.10;;
72590;SDS011;60625;51.212;5.952;2024-02-14T09:46:27;6.20;;;2.00;;
72590;SDS011;60625;51.212;5.952;2024-02-14T09:51:32;7.30;;;2.50;;
72590;SDS011;60625;51.212;5.952;2024-02-14T09:56:34;5.00;;;2.20;;
72590;SDS011;60625;51.212;5.952;2024-02-14T10:01:38;4.90;;;1.90;;
72590;SDS011;60625;51.212;5.952;2024-02-14T10:06:39;6.00;;;2.10;;
72590;SDS011;60625;51.212;5.952;2024-02-14T10:11:40;5.70;;;2.00;;
72590;SDS011;60625;51.212;5.952;2024-02-14T10:16:41;5.50;;;1.70;;
72590;SDS011;60625;51.212;5.952;2024-02-14T10:21:41;4.00;;;1.60;;
72590;SDS011;60625;51.212;5.952;2024-02-14T10:26:42;6.20;;;1.80;;
72590;SDS011;60625;51.212;5.952;2024-02-14T10:31:43;9.00;;;2.50;;
72590;SDS011;60625;51.212;5.952;2024-02-14T10:36:44;7.70;;;2.30;;
72590;SDS011;60625;51.212;5.952;2024-02-14T10:41:45;7.00;;;2.10;;
72590;SDS011;60625;51.212;5.952;2024-02-14T10:46:48;6.60;;;2.00;;
72590;SDS011;60625;51.212;5.952;2024-02-14T10:51:54;4.80;;;1.90;;
72590;SDS011;60625;51.212;5.952;2024-02-14T10:56:58;6.80;;;1.90;;
72590;SDS011;60625;51.212;5.952;2024-02-14T11:02:00;5.30;;;1.80;;
72590;SDS011;60625;51.212;5.952;2024-02-14T11:07:00;4.70;;;1.90;;
72590;SDS011;60625;51.212;5.952;2024-02-14T11:12:12;5.70;;;2.20;;
72590;SDS011;60625;51.212;5.952;2024-02-14T11:17:19;4.80;;;1.90;;
72590;SDS011;60625;51.212;5.952;2024-02-14T11:22:24;4.10;;;1.90;;
72590;SDS011;60625;51.212;5.952;2024-02-14T11:27:28;5.00;;;1.70;;
72590;SDS011;60625;51.212;5.952;2024-02-14T11:32:28;4.60;;;2.00;;
72590;SDS011;60625;51.212;5.952;2024-02-14T11:37:30;5.20;;;2.10;;
72590;SDS011;60625;51.212;5.952;2024-02-14T11:42:32;3.50;;;1.70;;
72590;SDS011;60625;51.212;5.952;2024-02-14T11:47:33;3.90;;;1.70;;
72590;SDS011;60625;51.212;5.952;2024-02-14T11:52:34;4.40;;;1.60;;
72590;SDS011;60625;51.212;5.952;2024-02-14T11:57:35;3.70;;;1.50;;
72590;SDS011;60625;51.212;5.952;2024-02-14T12:02:37;4.20;;;1.40;;
72590;SDS011;60625;51.212;5.952;2024-02-14T12:07:38;3.80;;;1.40;;
72590;SDS011;60625;51.212;5.952;2024-02-14T12:12:47;3.80;;;1.20;;
72590;SDS011;60625;51.212;5.952;2024-02-14T12:17:49;4.60;;;1.30;;
72590;SDS011;60625;51.212;5.952;2024-02-14T12:22:50;7.10;;;1.50;;
72590;SDS011;60625;51.212;5.952;2024-02-14T12:27:51;4.70;;;1.10;;
72590;SDS011;60625;51.212;5.952;2024-02-14T12:32:59;3.10;;;1.20;;
72590;SDS011;60625;51.212;5.952;2024-02-14T12:38:02;5.30;;;1.20;;
72590;SDS011;60625;51.212;5.952;2024-02-14T12:43:10;2.80;;;1.00;;
72590;SDS011;60625;51.212;5.952;2024-02-14T12:48:13;3.90;;;1.40;;
72590;SDS011;60625;51.212;5.952;2024-02-14T12:53:23;2.90;;;1.00;;
72590;SDS011;60625;51.212;5.952;2024-02-14T12:58:24;2.60;;;1.00;;
72590;SDS011;60625;51.212;5.952;2024-02-14T13:03:25;3.80;;;1.00;;
72590;SDS011;60625;51.212;5.952;2024-02-14T13:08:26;3.10;;;1.10;;
72590;SDS011;60625;51.212;5.952;2024-02-14T13:13:27;3.80;;;1.00;;
72590;SDS011;60625;51.212;5.952;2024-02-14T13:18:30;3.40;;;1.00;;
72590;SDS011;60625;51.212;5.952;2024-02-14T13:23:32;3.50;;;0.90;;
72590;SDS011;60625;51.212;5.952;2024-02-14T13:28:34;2.90;;;0.90;;
72590;SDS011;60625;51.212;5.952;2024-02-14T13:33:35;2.40;;;0.80;;
72590;SDS011;60625;51.212;5.952;2024-02-14T13:38:37;3.20;;;1.00;;
72590;SDS011;60625;51.212;5.952;2024-02-14T13:43:38;2.60;;;0.90;;
72590;SDS011;60625;51.212;5.952;2024-02-14T13:48:39;2.70;;;0.70;;
72590;SDS011;60625;51.212;5.952;2024-02-14T13:53:41;3.70;;;0.80;;
72590;SDS011;60625;51.212;5.952;2024-02-14T13:58:41;2.60;;;0.80;;
72590;SDS011;60625;51.212;5.952;2024-02-14T14:03:42;2.90;;;0.70;;
72590;SDS011;60625;51.212;5.952;2024-02-14T14:08:42;3.50;;;0.80;;
72590;SDS011;60625;51.212;5.952;2024-02-14T14:13:43;2.60;;;0.80;;
72590;SDS011;60625;51.212;5.952;2024-02-14T14:18:45;2.40;;;0.70;;
72590;SDS011;60625;51.212;5.952;2024-02-14T14:23:46;2.20;;;0.80;;
72590;SDS011;60625;51.212;5.952;2024-02-14T14:28:47;3.20;;;1.10;;
72590;SDS011;60625;51.212;5.952;2024-02-14T14:33:47;4.20;;;1.20;;
72590;SDS011;60625;51.212;5.952;2024-02-14T14:38:49;4.70;;;0.90;;
72590;SDS011;60625;51.212;5.952;2024-02-14T14:43:49;2.70;;;1.00;;
72590;SDS011;60625;51.212;5.952;2024-02-14T14:48:51;2.70;;;1.20;;
72590;SDS011;60625;51.212;5.952;2024-02-14T14:53:52;2.80;;;1.00;;
72590;SDS011;60625;51.212;5.952;2024-02-14T14:58:53;3.20;;;1.20;;
72590;SDS011;60625;51.212;5.952;2024-02-14T15:03:53;4.20;;;1.40;;
72590;SDS011;60625;51.212;5.952;2024-02-14T15:08:54;4.90;;;1.60;;
72590;SDS011;60625;51.212;5.952;2024-02-14T15:13:55;3.50;;;1.40;;
72590;SDS011;60625;51.212;5.952;2024-02-14T15:18:56;3.70;;;1.20;;
72590;SDS011;60625;51.212;5.952;2024-02-14T15:23:56;3.40;;;1.80;;
72590;SDS011;60625;51.212;5.952;2024-02-14T15:28:56;4.10;;;2.40;;
72590;SDS011;60625;51.212;5.952;2024-02-14T15:34:16;5.50;;;1.40;;
72590;SDS011;60625;51.212;5.952;2024-02-14T15:39:17;3.20;;;1.10;;
72590;SDS011;60625;51.212;5.952;2024-02-14T15:44:17;4.40;;;1.20;;
72590;SDS011;60625;51.212;5.952;2024-02-14T15:49:18;4.80;;;1.50;;
72590;SDS011;60625;51.212;5.952;2024-02-14T15:54:20;3.50;;;1.40;;
72590;SDS011;60625;51.212;5.952;2024-02-14T15:59:21;4.40;;;1.30;;
72590;SDS011;60625;51.212;5.952;2024-02-14T16:04:21;4.60;;;1.30;;
72590;SDS011;60625;51.212;5.952;2024-02-14T16:09:22;4.40;;;1.30;;
72590;SDS011;60625;51.212;5.952;2024-02-14T16:14:23;3.70;;;1.40;;
72590;SDS011;60625;51.212;5.952;2024-02-14T16:19:24;3.50;;;1.20;;
72590;SDS011;60625;51.212;5.952;2024-02-14T16:24:25;6.70;;;3.70;;
72590;SDS011;60625;51.212;5.952;2024-02-14T16:29:25;3.90;;;1.50;;
72590;SDS011;60625;51.212;5.952;2024-02-14T16:34:26;4.80;;;1.60;;
72590;SDS011;60625;51.212;5.952;2024-02-14T16:39:27;4.20;;;1.60;;
72590;SDS011;60625;51.212;5.952;2024-02-14T16:44:28;4.10;;;2.00;;
72590;SDS011;60625;51.212;5.952;2024-02-14T16:49:29;4.60;;;1.80;;
72590;SDS011;60625;51.212;5.952;2024-02-14T16:54:29;4.50;;;1.90;;
72590;SDS011;60625;51.212;5.952;2024-02-14T16:59:32;3.90;;;1.90;;
72590;SDS011;60625;51.212;5.952;2024-02-14T17:04:33;5.10;;;1.80;;
72590;SDS011;60625;51.212;5.952;2024-02-14T17:09:34;4.90;;;1.80;;
72590;SDS011;60625;51.212;5.952;2024-02-14T17:14:34;4.80;;;1.80;;
72590;SDS011;60625;51.212;5.952;2024-02-14T17:19:35;4.80;;;1.80;;
72590;SDS011;60625;51.212;5.952;2024-02-14T17:24:36;4.50;;;2.20;;
72590;SDS011;60625;51.212;5.952;2024-02-14T17:29:38;4.50;;;1.70;;
72590;SDS011;60625;51.212;5.952;2024-02-14T17:34:39;4.60;;;1.90;;
72590;SDS011;60625;51.212;5.952;2024-02-14T17:39:41;5.70;;;1.80;;
72590;SDS011;60625;51.212;5.952;2024-02-14T17:44:42;4.50;;;1.90;;
72590;SDS011;60625;51.212;5.952;2024-02-14T17:49:43;5.30;;;2.30;;
72590;SDS011;60625;51.212;5.952;2024-02-14T17:54:44;5.50;;;2.70;;
72590;SDS011;60625;51.212;5.952;2024-02-14T17:59:44;5.20;;;2.50;;
72590;SDS011;60625;51.212;5.952;2024-02-14T18:04:45;5.00;;;2.90;;
72590;SDS011;60625;51.212;5.952;2024-02-14T18:09:46;5.80;;;2.60;;
72590;SDS011;60625;51.212;5.952;2024-02-14T18:14:47;5.90;;;2.90;;
72590;SDS011;60625;51.212;5.952;2024-02-14T18:19:48;6.00;;;3.10;;
72590;SDS011;60625;51.212;5.952;2024-02-14T18:24:49;6.60;;;3.60;;
72590;SDS011;60625;51.212;5.952;2024-02-14T18:29:49;7.60;;;3.40;;
72590;SDS011;60625;51.212;5.952;2024-02-14T18:34:50;5.90;;;3.00;;
72590;SDS011;60625;51.212;5.952;2024-02-14T18:39:50;7.60;;;3.40;;
72590;SDS011;60625;51.212;5.952;2024-02-14T18:44:53;6.60;;;3.30;;
72590;SDS011;60625;51.212;5.952;2024-02-14T18:49:54;8.00;;;3.80;;
72590;SDS011;60625;51.212;5.952;2024-02-14T18:54:54;5.80;;;3.50;;
72590;SDS011;60625;51.212;5.952;2024-02-14T18:59:55;8.30;;;4.80;;
72590;SDS011;60625;51.212;5.952;2024-02-14T19:04:55;7.60;;;3.70;;
72590;SDS011;60625;51.212;5.952;2024-02-14T19:09:56;8.50;;;4.70;;
72590;SDS011;60625;51.212;5.952;2024-02-14T19:14:56;8.00;;;4.30;;
72590;SDS011;60625;51.212;5.952;2024-02-14T19:19:58;8.30;;;4.60;;
72590;SDS011;60625;51.212;5.952;2024-02-14T19:25:00;8.20;;;4.90;;
72590;SDS011;60625;51.212;5.952;2024-02-14T19:30:02;7.00;;;4.50;;
72590;SDS011;60625;51.212;5.952;2024-02-14T19:35:05;8.50;;;4.80;;
72590;SDS011;60625;51.212;5.952;2024-02-14T19:40:06;9.70;;;5.40;;
72590;SDS011;60625;51.212;5.952;2024-02-14T19:45:08;11.00;;;5.40;;
72590;SDS011;60625;51.212;5.952;2024-02-14T19:50:09;11.10;;;6.20;;
72590;SDS011;60625;51.212;5.952;2024-02-14T19:55:11;10.20;;;5.50;;
72590;SDS011;60625;51.212;5.952;2024-02-14T20:00:12;11.70;;;6.50;;
72590;SDS011;60625;51.212;5.952;2024-02-14T20:05:13;12.70;;;5.90;;
72590;SDS011;60625;51.212;5.952;2024-02-14T20:10:14;11.10;;;5.90;;
72590;SDS011;60625;51.212;5.952;2024-02-14T20:15:17;8.80;;;4.70;;
72590;SDS011;60625;51.212;5.952;2024-02-14T20:20:19;10.20;;;5.70;;
72590;SDS011;60625;51.212;5.952;2024-02-14T20:25:23;7.70;;;5.00;;
72590;SDS011;60625;51.212;5.952;2024-02-14T20:30:24;9.80;;;5.60;;
72590;SDS011;60625;51.212;5.952;2024-02-14T20:35:28;11.50;;;5.50;;
72590;SDS011;60625;51.212;5.952;2024-02-14T20:40:29;11.40;;;5.70;;
72590;SDS011;60625;51.212;5.952;2024-02-14T20:45:31;11.80;;;5.40;;
72590;SDS011;60625;51.212;5.952;2024-02-14T20:50:35;11.80;;;5.40;;
72590;SDS011;60625;51.212;5.952;2024-02-14T20:55:35;9.20;;;5.40;;
72590;SDS011;60625;51.212;5.952;2024-02-14T21:00:37;13.20;;;5.90;;
72590;SDS011;60625;51.212;5.952;2024-02-14T21:05:37;11.90;;;5.60;;
72590;SDS011;60625;51.212;5.952;2024-02-14T21:10:38;10.20;;;5.60;;
72590;SDS011;60625;51.212;5.952;2024-02-14T21:15:38;11.50;;;5.60;;
72590;SDS011;60625;51.212;5.952;2024-02-14T21:20:41;11.70;;;5.80;;
72590;SDS011;60625;51.212;5.952;2024-02-14T21:25:41;15.80;;;5.80;;
72590;SDS011;60625;51.212;5.952;2024-02-14T21:30:42;10.10;;;5.80;;
72590;SDS011;60625;51.212;5.952;2024-02-14T21:35:43;11.00;;;5.30;;
72590;SDS011;60625;51.212;5.952;2024-02-14T21:40:46;12.00;;;5.30;;
72590;SDS011;60625;51.212;5.952;2024-02-14T21:45:47;10.60;;;6.00;;
72590;SDS011;60625;51.212;5.952;2024-02-14T21:50:48;14.90;;;6.10;;
72590;SDS011;60625;51.212;5.952;2024-02-14T21:55:48;11.20;;;5.50;;
72590;SDS011;60625;51.212;5.952;2024-02-14T22:00:49;13.30;;;5.40;;
72590;SDS011;60625;51.212;5.952;2024-02-14T22:05:49;13.20;;;6.40;;
72590;SDS011;60625;51.212;5.952;2024-02-14T22:10:49;15.60;;;5.30;;
72590;SDS011;60625;51.212;5.952;2024-02-14T22:15:51;11.60;;;5.40;;
72590;SDS011;60625;51.212;5.952;2024-02-14T22:20:51;15.30;;;5.30;;
72590;SDS011;60625;51.212;5.952;2024-02-14T22:25:53;11.60;;;4.60;;
72590;SDS011;60625;51.212;5.952;2024-02-14T22:30:54;13.50;;;4.70;;
72590;SDS011;60625;51.212;5.952;2024-02-14T22:35:55;12.70;;;5.10;;
72590;SDS011;60625;51.212;5.952;2024-02-14T22:40:56;12.90;;;5.00;;
72590;SDS011;60625;51.212;5.952;2024-02-14T22:45:56;11.10;;;5.20;;
72590;SDS011;60625;51.212;5.952;2024-02-14T22:50:57;10.20;;;4.80;;
72590;SDS011;60625;51.212;5.952;2024-02-14T22:55:58;15.60;;;5.90;;
72590;SDS011;60625;51.212;5.952;2024-02-14T23:00:58;13.00;;;4.60;;
72590;SDS011;60625;51.212;5.952;2024-02-14T23:05:59;15.70;;;5.30;;
72590;SDS011;60625;51.212;5.952;2024-02-14T23:11:02;11.50;;;4.80;;
72590;SDS011;60625;51.212;5.952;2024-02-14T23:16:04;13.20;;;5.10;;
72590;SDS011;60625;51.212;5.952;2024-02-14T23:21:05;10.90;;;4.90;;
72590;SDS011;60625;51.212;5.952;2024-02-14T23:26:07;13.40;;;6.00;;
72590;SDS011;60625;51.212;5.952;2024-02-14T23:31:08;16.10;;;5.60;;
72590;SDS011;60625;51.212;5.952;2024-02-14T23:36:10;14.30;;;5.10;;
72590;SDS011;60625;51.212;5.952;2024-02-14T23:41:11;12.80;;;5.50;;
72590;SDS011;60625;51.212;5.952;2024-02-14T23:46:11;14.00;;;5.10;;
72590;SDS011;60625;51.212;5.952;2024-02-14T23:51:12;11.90;;;5.50;;
72590;SDS011;60625;51.212;5.952;2024-02-14T23:56:16;15.30;;;5.70;;
